createdAt,value
2022-11-12T00:00:43.742Z,23.9
2022-11-12T00:01:45.830Z,23.9
2022-11-12T00:02:48.174Z,23.9
2022-11-12T00:03:50.641Z,23.9
2022-11-12T00:04:53.096Z,24
2022-11-12T00:05:55.527Z,24
2022-11-12T00:06:58.172Z,24
2022-11-12T00:08:00.547Z,24
2022-11-12T00:09:02.749Z,24
2022-11-12T00:10:05.382Z,24
2022-11-12T00:11:07.882Z,24
2022-11-12T00:12:09.785Z,24
2022-11-12T00:13:11.984Z,24
2022-11-12T00:14:14.163Z,24
2022-11-12T00:15:16.369Z,24
2022-11-12T00:16:18.827Z,24
2022-11-12T00:17:21.305Z,24.1
2022-11-12T00:18:24.553Z,24.1
2022-11-12T00:19:27.549Z,24.1
2022-11-12T00:20:30.254Z,24.1
2022-11-12T00:21:32.989Z,24.1
2022-11-12T00:22:35.192Z,24.1
2022-11-12T00:23:37.667Z,24.1
2022-11-12T00:24:39.315Z,24.1
2022-11-12T00:25:41.900Z,24
2022-11-12T00:26:44.109Z,24
2022-11-12T00:27:46.577Z,24
2022-11-12T00:28:48.776Z,24
2022-11-12T00:29:50.975Z,24.1
2022-11-12T00:30:52.603Z,24.1
2022-11-12T00:31:54.796Z,24.1
2022-11-12T00:32:57.271Z,24.1
2022-11-12T00:33:59.745Z,24.1
2022-11-12T00:35:03.810Z,24.1
2022-11-12T00:36:07.195Z,24.1
2022-11-12T00:37:09.604Z,24.1
2022-11-12T00:38:11.998Z,24.1
2022-11-12T00:39:14.183Z,24.1
2022-11-12T00:40:16.111Z,24.1
2022-11-12T00:41:18.409Z,24.2
2022-11-12T00:42:20.613Z,24.2
2022-11-12T00:43:22.515Z,24.2
2022-11-12T00:44:24.984Z,24.2
2022-11-12T00:45:27.737Z,24.2
2022-11-12T00:46:30.208Z,24.2
2022-11-12T00:47:32.387Z,24.2
2022-11-12T00:48:34.845Z,24.2
2022-11-12T00:49:37.047Z,24.2
2022-11-12T00:50:39.517Z,24.2
2022-11-12T00:51:41.941Z,24.2
2022-11-12T00:52:44.651Z,24.2
2022-11-12T00:53:46.835Z,24.2
2022-11-12T00:54:49.023Z,24.2
2022-11-12T00:55:50.930Z,24.2
2022-11-12T00:56:53.229Z,24.2
2022-11-12T00:57:55.701Z,24.2
2022-11-12T00:58:58.186Z,24.2
2022-11-12T01:00:00.677Z,24.2
2022-11-12T01:01:03.073Z,24.2
2022-11-12T01:02:05.632Z,24.2
2022-11-12T01:03:07.541Z,24.3
2022-11-12T01:04:09.599Z,24.3
2022-11-12T01:05:12.275Z,24.3
2022-11-12T01:06:15.166Z,24.3
2022-11-12T01:07:18.009Z,24.3
2022-11-12T01:08:20.876Z,24.3
2022-11-12T01:09:23.352Z,24.3
2022-11-12T01:10:25.850Z,24.3
2022-11-12T01:11:27.753Z,24.3
2022-11-12T01:12:30.336Z,24.3
2022-11-12T01:13:32.258Z,24.3
2022-11-12T01:14:34.173Z,24.3
2022-11-12T01:15:36.358Z,24.3
2022-11-12T01:16:38.561Z,24.3
2022-11-12T01:17:41.028Z,24.3
2022-11-12T01:18:43.221Z,24.3
2022-11-12T01:19:45.421Z,24.3
2022-11-12T01:20:47.930Z,24.3
2022-11-12T01:21:50.129Z,24.3
2022-11-12T01:22:52.573Z,24.3
2022-11-12T01:23:55.262Z,24.3
2022-11-12T01:24:57.176Z,24.3
2022-11-12T01:25:59.376Z,24.3
2022-11-12T01:27:01.855Z,24.3
2022-11-12T01:28:04.172Z,24.3
2022-11-12T01:29:06.649Z,24.3
2022-11-12T01:30:08.839Z,24.3
2022-11-12T01:31:10.501Z,24.3
2022-11-12T01:32:12.976Z,24.4
2022-11-12T01:33:15.164Z,24.4
2022-11-12T01:34:17.072Z,24.4
2022-11-12T01:35:19.541Z,24.4
2022-11-12T01:36:22.019Z,24.4
2022-11-12T01:37:24.203Z,24.4
2022-11-12T01:38:28.365Z,24.4
2022-11-12T01:39:31.592Z,24.4
2022-11-12T01:40:33.801Z,24.4
2022-11-12T01:41:35.974Z,24.4
2022-11-12T01:42:38.176Z,24.4
2022-11-12T01:43:40.265Z,24.4
2022-11-12T01:44:42.739Z,24.4
2022-11-12T01:45:44.914Z,24.4
2022-11-12T01:46:47.387Z,24.4
2022-11-12T01:47:49.875Z,24.4
2022-11-12T01:48:52.349Z,24.4
2022-11-12T01:50:59.808Z,24.5
2022-11-12T01:52:01.995Z,24.5
2022-11-12T01:53:03.895Z,24.5
2022-11-12T01:54:06.601Z,24.5
2022-11-12T01:55:09.320Z,24.5
2022-11-12T01:56:11.504Z,24.5
2022-11-12T01:57:13.967Z,24.5
2022-11-12T01:58:15.872Z,24.5
2022-11-12T01:59:18.199Z,24.5
2022-11-12T02:00:20.391Z,24.5
2022-11-12T02:01:22.852Z,24.5
2022-11-12T02:02:25.186Z,24.5
2022-11-12T02:03:27.153Z,24.5
2022-11-12T02:04:29.628Z,24.5
2022-11-12T02:05:32.098Z,24.5
2022-11-12T02:06:34.550Z,24.5
2022-11-12T02:07:37.190Z,24.5
2022-11-12T02:08:38.825Z,24.5
2022-11-12T02:09:41.279Z,24.5
2022-11-12T02:10:43.971Z,24.5
2022-11-12T02:11:46.446Z,24.5
2022-11-12T02:12:48.914Z,24.5
2022-11-12T02:13:51.403Z,24.5
2022-11-12T02:14:53.711Z,24.5
2022-11-12T02:15:56.181Z,24.5
2022-11-12T02:16:58.376Z,24.5
2022-11-12T02:18:00.300Z,24.6
2022-11-12T02:19:02.248Z,24.6
2022-11-12T02:20:04.733Z,24.6
2022-11-12T02:21:07.203Z,24.6
2022-11-12T02:22:09.416Z,24.6
2022-11-12T02:23:11.342Z,24.6
2022-11-12T02:24:13.545Z,24.6
2022-11-12T02:25:16.246Z,24.6
2022-11-12T02:26:18.939Z,24.6
2022-11-12T02:27:20.567Z,24.6
2022-11-12T02:28:23.520Z,24.6
2022-11-12T02:29:26.816Z,24.6
2022-11-12T02:30:29.099Z,24.6
2022-11-12T02:31:31.286Z,24.6
2022-11-12T02:32:33.206Z,24.6
2022-11-12T02:33:35.550Z,24.6
2022-11-12T02:34:37.470Z,24.6
2022-11-12T02:35:39.944Z,24.6
2022-11-12T02:36:41.879Z,24.6
2022-11-12T02:37:43.513Z,24.6
2022-11-12T02:38:45.430Z,24.6
2022-11-12T02:39:48.070Z,24.6
2022-11-12T02:40:50.565Z,24.6
2022-11-12T02:41:52.787Z,24.6
2022-11-12T02:42:55.046Z,24.6
2022-11-12T02:43:57.227Z,24.6
2022-11-12T02:44:59.424Z,24.6
2022-11-12T02:46:01.751Z,24.6
2022-11-12T02:47:04.225Z,24.6
2022-11-12T02:48:06.147Z,24.6
2022-11-12T02:49:08.341Z,24.6
2022-11-12T02:50:10.810Z,24.6
2022-11-12T02:51:13.023Z,24.6
2022-11-12T02:52:15.509Z,24.6
2022-11-12T02:53:17.154Z,24.6
2022-11-12T02:54:19.082Z,24.6
2022-11-12T02:55:21.544Z,24.6
2022-11-12T02:56:23.973Z,24.6
2022-11-12T02:57:26.390Z,24.6
2022-11-12T02:58:29.429Z,24.6
2022-11-12T02:59:31.289Z,24.6
2022-11-12T03:00:33.496Z,24.6
2022-11-12T03:01:35.528Z,24.6
2022-11-12T03:02:37.706Z,24.6
2022-11-12T03:03:39.908Z,24.6
2022-11-12T03:05:47.375Z,24.6
2022-11-12T03:06:49.733Z,24.6
2022-11-12T03:07:52.049Z,24.6
2022-11-12T03:08:54.531Z,24.6
2022-11-12T03:09:57.000Z,24.6
2022-11-12T03:10:59.178Z,24.6
2022-11-12T03:12:01.610Z,24.6
2022-11-12T03:13:04.310Z,24.7
2022-11-12T03:14:06.215Z,24.6
2022-11-12T03:15:08.693Z,24.6
2022-11-12T03:16:10.896Z,24.6
2022-11-12T03:17:13.193Z,24.7
2022-11-12T03:18:15.385Z,24.6
2022-11-12T03:19:17.579Z,24.7
2022-11-12T03:20:19.759Z,24.7
2022-11-12T03:21:21.975Z,24.7
2022-11-12T03:22:24.449Z,24.7
2022-11-12T03:23:26.921Z,24.7
2022-11-12T03:24:29.395Z,24.7
2022-11-12T03:25:31.890Z,24.7
2022-11-12T03:27:39.599Z,24.6
2022-11-12T03:28:42.019Z,24.7
2022-11-12T03:29:44.498Z,24.7
2022-11-12T03:30:46.701Z,24.7
2022-11-12T03:31:49.172Z,24.7
2022-11-12T03:32:51.742Z,24.7
2022-11-12T03:33:54.215Z,24.7
2022-11-12T03:34:56.869Z,24.7
2022-11-12T03:35:58.785Z,24.7
2022-11-12T03:37:00.722Z,24.7
2022-11-12T03:38:02.924Z,24.7
2022-11-12T03:39:05.118Z,24.7
2022-11-12T03:40:07.589Z,24.7
2022-11-12T03:41:10.054Z,24.7
2022-11-12T03:42:12.261Z,24.7
2022-11-12T03:43:14.393Z,24.7
2022-11-12T03:44:17.098Z,24.7
2022-11-12T03:45:19.287Z,24.7
2022-11-12T03:46:21.768Z,24.7
2022-11-12T03:47:24.230Z,24.7
2022-11-12T03:48:27.756Z,24.7
2022-11-12T03:49:31.185Z,24.7
2022-11-12T03:50:33.387Z,24.7
2022-11-12T03:51:35.304Z,24.7
2022-11-12T03:52:37.777Z,24.7
2022-11-12T03:53:39.676Z,24.7
2022-11-12T03:54:42.142Z,24.7
2022-11-12T03:55:44.320Z,24.7
2022-11-12T03:56:45.959Z,24.7
2022-11-12T03:57:47.885Z,24.7
2022-11-12T03:58:50.617Z,24.7
2022-11-12T03:59:53.037Z,24.7
2022-11-12T04:00:55.632Z,24.7
2022-11-12T04:01:58.248Z,24.7
2022-11-12T04:03:00.728Z,24.7
2022-11-12T04:04:03.041Z,24.7
2022-11-12T04:05:05.522Z,24.6
2022-11-12T04:06:07.986Z,24.6
2022-11-12T04:07:10.693Z,24.6
2022-11-12T04:08:12.774Z,24.6
2022-11-12T04:09:15.939Z,24.5
2022-11-12T04:10:17.845Z,24.5
2022-11-12T04:11:20.036Z,24.5
2022-11-12T04:12:21.948Z,24.5
2022-11-12T04:13:24.435Z,24.5
2022-11-12T04:14:26.847Z,24.5
2022-11-12T04:15:29.258Z,24.5
2022-11-12T04:16:30.904Z,24.5
2022-11-12T04:17:33.419Z,24.4
2022-11-12T04:18:35.888Z,24.4
2022-11-12T04:19:38.475Z,24.4
2022-11-12T04:20:40.668Z,24.4
2022-11-12T04:21:43.147Z,24.4
2022-11-12T04:22:45.070Z,24.4
2022-11-12T04:23:47.548Z,24.4
2022-11-12T04:24:50.021Z,24.4
2022-11-12T04:25:52.220Z,24.4
2022-11-12T04:26:54.695Z,24.3
2022-11-12T04:27:57.176Z,24.3
2022-11-12T04:28:59.348Z,24.3
2022-11-12T04:30:02.059Z,24.3
2022-11-12T04:31:04.773Z,24.3
2022-11-12T04:32:06.962Z,24.3
2022-11-12T04:33:09.473Z,24.3
2022-11-12T04:34:11.938Z,24.3
2022-11-12T04:35:14.688Z,24.3
2022-11-12T04:36:16.326Z,24.3
2022-11-12T04:38:24.534Z,24.3
2022-11-12T04:39:27.740Z,24.3
2022-11-12T04:40:30.223Z,24.3
2022-11-12T04:41:32.138Z,24.3
2022-11-12T04:42:34.613Z,24.3
2022-11-12T04:43:36.811Z,24.3
2022-11-12T04:44:39.294Z,24.2
2022-11-12T04:45:41.719Z,24.2
2022-11-12T04:46:44.152Z,24.2
2022-11-12T04:47:46.351Z,24.2
2022-11-12T04:48:48.549Z,24.2
2022-11-12T04:49:51.016Z,24.2
2022-11-12T04:50:53.330Z,24.2
2022-11-12T04:51:55.801Z,24.2
2022-11-12T04:52:58.023Z,24.2
2022-11-12T04:54:00.227Z,24.2
2022-11-12T04:55:02.412Z,24.2
2022-11-12T04:56:04.879Z,24.2
2022-11-12T04:57:06.803Z,24.2
2022-11-12T04:58:09.274Z,24.2
2022-11-12T04:59:10.637Z,24.2
2022-11-12T05:00:13.104Z,24.2
2022-11-12T05:01:16.054Z,24.2
2022-11-12T05:02:18.959Z,24.2
2022-11-12T05:03:21.443Z,24.2
2022-11-12T05:04:23.912Z,24.2
2022-11-12T05:06:31.491Z,24.2
2022-11-12T05:07:33.678Z,24.2
2022-11-12T05:08:35.873Z,24.2
2022-11-12T05:09:38.066Z,24.2
2022-11-12T05:10:40.538Z,24.2
2022-11-12T05:11:42.457Z,24.1
2022-11-12T05:12:44.941Z,24.1
2022-11-12T05:13:47.124Z,24.1
2022-11-12T05:14:49.323Z,24.1
2022-11-12T05:15:51.830Z,24.1
2022-11-12T05:16:54.536Z,24.1
2022-11-12T05:17:57.239Z,24.1
2022-11-12T05:18:59.705Z,24.1
2022-11-12T05:20:01.910Z,24.1
2022-11-12T05:21:04.108Z,24.1
2022-11-12T05:22:06.456Z,24.1
2022-11-12T05:23:12.903Z,24.1
2022-11-12T05:25:19.808Z,24.1
2022-11-12T05:26:22.270Z,24.1
2022-11-12T05:27:24.228Z,24.1
2022-11-12T05:28:27.378Z,24.1
2022-11-12T05:29:30.634Z,24.1
2022-11-12T05:30:33.094Z,24.1
2022-11-12T05:31:34.998Z,24.1
2022-11-12T05:32:37.430Z,24.1
2022-11-12T05:33:40.131Z,24.1
2022-11-12T05:34:42.326Z,24.1
2022-11-12T05:35:44.498Z,24.1
2022-11-12T05:36:46.985Z,24.1
2022-11-12T05:37:49.301Z,24.1
2022-11-12T05:38:51.492Z,24.1
2022-11-12T05:39:53.167Z,24.1
2022-11-12T05:40:55.643Z,24.1
2022-11-12T05:43:02.273Z,24.1
2022-11-12T05:44:04.451Z,24.1
2022-11-12T05:45:06.927Z,24.1
2022-11-12T05:46:09.397Z,24.1
2022-11-12T05:47:11.037Z,24.1
2022-11-12T05:48:13.738Z,24.1
2022-11-12T05:49:20.794Z,24.1
2022-11-12T05:50:22.692Z,24.1
2022-11-12T05:51:24.617Z,24.1
2022-11-12T05:52:27.082Z,24.1
2022-11-12T05:53:29.666Z,24
2022-11-12T05:54:31.888Z,24
2022-11-12T05:56:39.351Z,24
2022-11-12T05:57:41.569Z,24
2022-11-12T05:58:43.760Z,24
2022-11-12T05:59:46.234Z,24
2022-11-12T06:00:48.431Z,24
2022-11-12T06:01:50.900Z,24
2022-11-12T06:02:52.663Z,24
2022-11-12T06:03:55.550Z,24
2022-11-12T06:04:58.814Z,24
2022-11-12T06:06:01.277Z,24
2022-11-12T06:07:03.204Z,24
2022-11-12T06:08:05.955Z,24
2022-11-12T06:09:08.286Z,24
2022-11-12T06:10:10.257Z,24
2022-11-12T06:11:18.693Z,24
2022-11-12T06:12:20.036Z,24
2022-11-12T06:13:22.510Z,24
2022-11-12T06:14:24.700Z,24
2022-11-12T06:15:26.628Z,24
2022-11-12T06:16:28.544Z,24
2022-11-12T06:17:31.018Z,24
2022-11-12T06:18:33.493Z,24
2022-11-12T06:19:35.917Z,24
2022-11-12T06:20:38.616Z,24
2022-11-12T06:21:41.428Z,24
2022-11-12T06:22:44.037Z,24
2022-11-12T06:23:46.506Z,24
2022-11-12T06:24:49.114Z,24
2022-11-12T06:25:50.741Z,24
2022-11-12T06:26:52.924Z,24
2022-11-12T06:27:55.129Z,24
2022-11-12T06:28:57.318Z,24
2022-11-12T06:29:59.497Z,24
2022-11-12T06:31:01.692Z,24
2022-11-12T06:32:04.173Z,24
2022-11-12T06:33:06.077Z,24
2022-11-12T06:34:08.548Z,24
2022-11-12T06:35:10.958Z,24
2022-11-12T06:36:13.669Z,24
2022-11-12T06:37:15.599Z,24
2022-11-12T06:38:18.081Z,24
2022-11-12T06:39:20.287Z,24
2022-11-12T06:40:22.303Z,24
2022-11-12T06:41:24.772Z,24
2022-11-12T06:42:27.039Z,24
2022-11-12T06:43:28.934Z,24
2022-11-12T06:44:31.420Z,24
2022-11-12T06:45:33.613Z,24
2022-11-12T06:46:36.082Z,24
2022-11-12T06:47:38.550Z,24
2022-11-12T06:48:40.742Z,24
2022-11-12T06:49:42.936Z,24
2022-11-12T06:50:45.368Z,24
2022-11-12T06:51:47.787Z,24
2022-11-12T06:52:50.270Z,24
2022-11-12T06:53:52.195Z,24
2022-11-12T06:54:54.419Z,24
2022-11-12T06:55:56.731Z,24
2022-11-12T06:56:58.669Z,24
2022-11-12T06:58:00.856Z,24
2022-11-12T06:59:03.336Z,24
2022-11-12T07:00:05.588Z,24
2022-11-12T07:02:12.813Z,24
2022-11-12T07:03:15.223Z,24
2022-11-12T07:04:16.875Z,24
2022-11-12T07:05:19.049Z,24
2022-11-12T07:06:21.873Z,24
2022-11-12T07:07:24.423Z,24
2022-11-12T07:08:28.449Z,24
2022-11-12T07:09:31.919Z,24
2022-11-12T07:10:34.093Z,24
2022-11-12T07:11:36.684Z,24
2022-11-12T07:12:39.339Z,24
2022-11-12T07:13:41.825Z,24
2022-11-12T07:14:44.296Z,24
2022-11-12T07:15:46.780Z,24
2022-11-12T07:16:48.418Z,24
2022-11-12T07:17:50.891Z,24
2022-11-12T07:18:53.105Z,24
2022-11-12T07:21:00.576Z,24
2022-11-12T07:22:03.077Z,24
2022-11-12T07:23:05.510Z,24
2022-11-12T07:24:07.460Z,24
2022-11-12T07:25:09.659Z,24
2022-11-12T07:26:12.143Z,24
2022-11-12T07:27:14.740Z,24
2022-11-12T07:28:17.214Z,24
2022-11-12T07:30:24.417Z,24
2022-11-12T07:31:26.895Z,24
2022-11-12T07:32:28.818Z,24
2022-11-12T07:33:30.731Z,24
2022-11-12T07:34:33.214Z,24
2022-11-12T07:35:35.424Z,24
2022-11-12T07:36:37.930Z,24
2022-11-12T07:37:40.360Z,24
2022-11-12T07:38:43.061Z,24
2022-11-12T07:39:44.964Z,24
2022-11-12T07:40:47.445Z,24
2022-11-12T07:41:49.916Z,24
2022-11-12T07:42:51.958Z,24
2022-11-12T07:43:54.430Z,24
2022-11-12T07:44:56.649Z,23.9
2022-11-12T07:45:59.150Z,23.9
2022-11-12T07:47:01.347Z,23.9
2022-11-12T07:48:03.549Z,24
2022-11-12T07:49:05.510Z,24
2022-11-12T07:50:07.698Z,23.9
2022-11-12T07:51:09.623Z,24
2022-11-12T07:52:11.803Z,23.9
2022-11-12T07:53:14.213Z,23.9
2022-11-12T07:54:16.913Z,24
2022-11-12T07:55:19.395Z,23.9
2022-11-12T07:56:21.589Z,24
2022-11-12T07:57:24.074Z,23.9
2022-11-12T07:58:27.850Z,24
2022-11-12T07:59:30.977Z,23.9
2022-11-12T08:00:33.449Z,23.9
2022-11-12T08:01:35.885Z,23.9
2022-11-12T08:02:38.330Z,23.9
2022-11-12T08:03:40.535Z,23.9
2022-11-12T08:04:42.783Z,23.9
2022-11-12T08:05:44.750Z,23.9
2022-11-12T08:06:47.432Z,23.9
2022-11-12T08:07:50.223Z,23.9
2022-11-12T08:08:53.004Z,23.9
2022-11-12T08:09:55.164Z,23.9
2022-11-12T08:10:57.113Z,23.9
2022-11-12T08:11:59.321Z,23.9
2022-11-12T08:13:01.526Z,23.9
2022-11-12T08:14:03.538Z,23.9
2022-11-12T08:15:05.454Z,23.9
2022-11-12T08:16:07.651Z,23.9
2022-11-12T08:17:10.122Z,23.9
2022-11-12T08:18:12.600Z,23.9
2022-11-12T08:19:15.344Z,23.9
2022-11-12T08:20:17.830Z,23.9
2022-11-12T08:21:20.299Z,23.9
2022-11-12T08:22:22.500Z,23.9
2022-11-12T08:23:24.426Z,23.9
2022-11-12T08:24:27.152Z,23.9
2022-11-12T08:25:29.865Z,23.9
2022-11-12T08:26:32.081Z,23.9
2022-11-12T08:27:34.319Z,23.9
2022-11-12T08:28:36.516Z,23.9
2022-11-12T08:29:38.829Z,23.9
2022-11-12T08:30:40.763Z,23.9
2022-11-12T08:31:42.965Z,23.9
2022-11-12T08:32:45.798Z,23.9
2022-11-12T08:33:48.402Z,23.9
2022-11-12T08:34:50.599Z,23.9
2022-11-12T08:35:52.811Z,23.9
2022-11-12T08:36:55.008Z,23.9
2022-11-12T08:37:56.933Z,23.9
2022-11-12T08:38:59.356Z,23.9
2022-11-12T08:40:02.052Z,23.9
2022-11-12T08:41:04.747Z,23.9
2022-11-12T08:42:06.950Z,23.9
2022-11-12T08:43:08.847Z,23.9
2022-11-12T08:44:11.322Z,23.9
2022-11-12T08:45:13.910Z,23.9
2022-11-12T08:46:16.124Z,23.9
2022-11-12T08:47:18.317Z,23.9
2022-11-12T08:48:19.695Z,23.9
2022-11-12T08:49:22.170Z,23.9
2022-11-12T08:50:24.662Z,23.9
2022-11-12T08:51:26.999Z,23.9
2022-11-12T08:52:29.238Z,23.9
2022-11-12T08:53:31.750Z,23.9
2022-11-12T08:54:33.978Z,23.9
2022-11-12T08:55:36.726Z,23.9
2022-11-12T08:56:39.173Z,23.9
2022-11-12T08:57:40.841Z,23.9
2022-11-12T08:58:43.342Z,23.9
2022-11-12T08:59:45.573Z,23.9
2022-11-12T09:00:47.929Z,23.9
2022-11-12T09:01:50.444Z,23.9
2022-11-12T09:02:52.817Z,23.9
2022-11-12T09:03:55.014Z,23.9
2022-11-12T09:04:57.222Z,23.9
2022-11-12T09:05:59.693Z,23.9
2022-11-12T09:07:02.384Z,23.9
2022-11-12T09:08:04.687Z,23.9
2022-11-12T09:09:07.142Z,23.9
2022-11-12T09:10:09.349Z,23.9
2022-11-12T09:11:11.787Z,23.9
2022-11-12T09:13:19.476Z,23.9
2022-11-12T09:14:21.813Z,23.9
2022-11-12T09:16:28.960Z,23.9
2022-11-12T09:17:31.147Z,23.9
2022-11-12T09:18:33.620Z,23.9
2022-11-12T09:20:41.080Z,23.9
2022-11-12T09:21:43.548Z,23.9
2022-11-12T09:22:45.737Z,23.9
2022-11-12T09:23:47.661Z,23.9
2022-11-12T09:24:50.134Z,23.9
2022-11-12T09:25:52.333Z,23.9
2022-11-12T09:26:55.046Z,23.9
2022-11-12T09:27:57.794Z,23.9
2022-11-12T09:28:59.736Z,23.9
2022-11-12T09:30:02.221Z,23.9
2022-11-12T09:31:04.144Z,23.9
2022-11-12T09:32:06.745Z,23.9
2022-11-12T09:33:08.970Z,23.9
2022-11-12T09:34:11.449Z,23.9
2022-11-12T09:35:13.922Z,23.9
2022-11-12T09:36:15.830Z,23.9
2022-11-12T09:37:18.367Z,23.9
2022-11-12T09:38:20.272Z,23.9
2022-11-12T09:39:22.201Z,23.9
2022-11-12T09:40:23.852Z,23.9
2022-11-12T09:41:26.060Z,23.9
2022-11-12T09:42:28.781Z,23.9
2022-11-12T09:43:31.483Z,23.9
2022-11-12T09:45:38.662Z,23.9
2022-11-12T09:46:41.144Z,23.9
2022-11-12T09:47:43.745Z,23.9
2022-11-12T09:48:45.673Z,23.9
2022-11-12T09:49:47.859Z,23.9
2022-11-12T09:50:50.074Z,23.9
2022-11-12T09:51:52.011Z,23.9
2022-11-12T09:52:54.493Z,23.9
2022-11-12T09:53:56.978Z,23.9
2022-11-12T09:54:59.441Z,23.9
2022-11-12T09:56:01.350Z,23.9
2022-11-12T09:57:03.565Z,23.9
2022-11-12T09:58:06.000Z,23.9
2022-11-12T09:59:08.715Z,23.9
2022-11-12T10:00:11.187Z,23.9
2022-11-12T10:01:12.725Z,23.9
2022-11-12T10:02:15.078Z,23.9
2022-11-12T10:03:17.385Z,23.9
2022-11-12T10:04:19.866Z,23.9
2022-11-12T10:05:22.071Z,23.9
2022-11-12T10:06:24.262Z,23.9
2022-11-12T10:07:26.807Z,23.9
2022-11-12T10:08:29.993Z,23.9
2022-11-12T10:09:32.349Z,23.9
2022-11-12T10:10:34.252Z,23.9
2022-11-12T10:11:36.451Z,23.9
2022-11-12T10:12:38.390Z,23.9
2022-11-12T10:13:40.821Z,23.9
2022-11-12T10:14:43.534Z,23.9
2022-11-12T10:15:45.457Z,23.9
2022-11-12T10:16:47.943Z,23.9
2022-11-12T10:17:50.413Z,23.9
2022-11-12T10:18:52.725Z,23.9
2022-11-12T10:19:55.222Z,23.9
2022-11-12T10:20:57.422Z,23.9
2022-11-12T10:22:00.050Z,23.9
2022-11-12T10:23:01.988Z,23.9
2022-11-12T10:24:04.177Z,23.9
2022-11-12T10:25:06.691Z,23.9
2022-11-12T10:26:08.935Z,23.9
2022-11-12T10:27:11.419Z,23.9
2022-11-12T10:28:13.325Z,23.9
2022-11-12T10:29:16.039Z,23.9
2022-11-12T10:30:18.716Z,23.9
2022-11-12T10:31:21.218Z,23.9
2022-11-12T10:32:23.392Z,23.9
2022-11-12T10:33:25.880Z,23.9
2022-11-12T10:34:28.576Z,23.9
2022-11-12T10:35:31.075Z,23.9
2022-11-12T10:36:33.551Z,23.9
2022-11-12T10:37:36.033Z,23.9
2022-11-12T10:38:38.507Z,23.9
2022-11-12T10:39:40.976Z,23.9
2022-11-12T10:40:43.211Z,23.9
2022-11-12T10:41:45.415Z,23.9
2022-11-12T10:42:47.893Z,23.9
2022-11-12T10:43:50.381Z,23.9
2022-11-12T10:44:52.553Z,23.9
2022-11-12T10:45:55.258Z,23.9
2022-11-12T10:46:57.734Z,23.9
2022-11-12T10:47:59.643Z,23.9
2022-11-12T10:49:01.866Z,23.9
2022-11-12T10:50:03.900Z,23.9
2022-11-12T10:51:06.107Z,23.9
2022-11-12T10:52:08.680Z,23.9
2022-11-12T10:53:11.182Z,23.9
2022-11-12T10:54:13.456Z,23.9
2022-11-12T10:55:15.783Z,23.9
2022-11-12T10:56:18.254Z,23.9
2022-11-12T10:57:19.879Z,23.9
2022-11-12T10:58:21.529Z,23.9
2022-11-12T10:59:24.018Z,23.9
2022-11-12T11:00:26.448Z,23.9
2022-11-12T11:02:33.859Z,23.9
2022-11-12T11:03:36.055Z,23.9
2022-11-12T11:04:37.986Z,23.9
2022-11-12T11:05:40.579Z,23.9
2022-11-12T11:06:42.979Z,23.9
2022-11-12T11:07:45.073Z,23.9
2022-11-12T11:08:47.012Z,23.9
2022-11-12T11:09:48.929Z,23.9
2022-11-12T11:10:51.405Z,23.9
2022-11-12T11:11:53.615Z,23.9
2022-11-12T11:12:56.114Z,23.9
2022-11-12T11:13:58.602Z,23.9
2022-11-12T11:15:00.793Z,23.9
2022-11-12T11:16:03.504Z,23.9
2022-11-12T11:17:06.204Z,23.9
2022-11-12T11:18:08.396Z,23.9
2022-11-12T11:19:10.410Z,23.9
2022-11-12T11:20:12.881Z,23.9
2022-11-12T11:21:15.477Z,23.9
2022-11-12T11:22:18.376Z,23.9
2022-11-12T11:23:20.566Z,23.9
2022-11-12T11:24:23.047Z,23.9
2022-11-12T11:25:25.250Z,23.9
2022-11-12T11:26:28.304Z,23.9
2022-11-12T11:27:29.947Z,23.9
2022-11-12T11:28:32.138Z,23.9
2022-11-12T11:29:34.607Z,23.9
2022-11-12T11:30:36.632Z,23.9
2022-11-12T11:31:39.328Z,23.9
2022-11-12T11:32:42.030Z,23.9
2022-11-12T11:33:44.244Z,23.9
2022-11-12T11:34:46.452Z,23.9
2022-11-12T11:35:48.671Z,23.9
2022-11-12T11:36:50.702Z,23.9
2022-11-12T11:38:58.166Z,23.9
2022-11-12T11:40:00.407Z,23.9
2022-11-12T11:41:02.617Z,23.9
2022-11-12T11:42:05.100Z,23.9
2022-11-12T11:43:07.322Z,23.9
2022-11-12T11:45:14.535Z,23.9
2022-11-12T11:46:16.742Z,23.9
2022-11-12T11:47:19.462Z,23.9
2022-11-12T11:48:21.890Z,23.9
2022-11-12T11:49:24.087Z,23.9
2022-11-12T11:50:25.816Z,23.9
2022-11-12T11:51:28.034Z,23.9
2022-11-12T11:52:30.633Z,23.9
2022-11-12T11:53:32.825Z,23.9
2022-11-12T11:54:35.040Z,23.9
2022-11-12T11:55:36.952Z,23.9
2022-11-12T11:56:39.167Z,23.8
2022-11-12T11:57:41.371Z,23.9
2022-11-12T11:58:43.861Z,23.8
2022-11-12T11:59:46.100Z,23.9
2022-11-12T12:00:48.292Z,23.9
2022-11-12T12:01:50.227Z,23.9
2022-11-12T12:02:52.933Z,23.9
2022-11-12T12:03:55.767Z,23.9
2022-11-12T12:04:58.108Z,23.8
2022-11-12T12:06:00.596Z,23.9
2022-11-12T12:07:03.248Z,23.9
2022-11-12T12:08:05.740Z,23.9
2022-11-12T12:09:07.937Z,23.8
2022-11-12T12:10:10.740Z,23.8
2022-11-12T12:11:13.208Z,23.8
2022-11-12T12:12:15.701Z,23.8
2022-11-12T12:13:17.901Z,23.9
2022-11-12T12:14:20.113Z,23.8
2022-11-12T12:15:22.592Z,23.8
2022-11-12T12:16:25.071Z,23.8
2022-11-12T12:18:32.494Z,23.8
2022-11-12T12:19:34.951Z,23.8
2022-11-12T12:20:37.431Z,23.8
2022-11-12T12:21:39.606Z,23.8
2022-11-12T12:22:42.073Z,23.8
2022-11-12T12:23:44.651Z,23.8
2022-11-12T12:24:46.838Z,23.8
2022-11-12T12:25:49.079Z,23.8
2022-11-12T12:26:51.267Z,23.8
2022-11-12T12:27:53.479Z,23.8
2022-11-12T12:28:55.403Z,23.8
2022-11-12T12:29:57.321Z,23.8
2022-11-12T12:30:59.797Z,23.8
2022-11-12T12:32:01.712Z,23.8
2022-11-12T12:33:04.182Z,23.8
2022-11-12T12:34:06.899Z,23.8
2022-11-12T12:35:09.617Z,23.8
2022-11-12T12:36:11.540Z,23.8
2022-11-12T12:37:14.027Z,23.8
2022-11-12T12:38:16.495Z,23.8
2022-11-12T12:39:19.114Z,23.8
2022-11-12T12:40:21.036Z,23.9
2022-11-12T12:41:23.525Z,23.8
2022-11-12T12:42:25.723Z,23.8
2022-11-12T12:43:28.205Z,23.9
2022-11-12T12:44:30.406Z,23.8
2022-11-12T12:46:37.600Z,23.8
2022-11-12T12:47:40.073Z,23.8
2022-11-12T12:48:41.997Z,23.8
2022-11-12T12:49:44.705Z,23.8
2022-11-12T12:50:47.132Z,23.8
2022-11-12T12:52:54.302Z,23.8
2022-11-12T12:53:56.773Z,23.8
2022-11-12T12:54:59.379Z,23.9
2022-11-12T12:56:01.589Z,23.8
2022-11-12T12:57:04.201Z,23.8
2022-11-12T12:58:06.387Z,23.8
2022-11-12T12:59:08.867Z,23.8
2022-11-12T13:01:16.600Z,23.8
2022-11-12T13:02:19.240Z,23.8
2022-11-12T13:03:21.730Z,23.8
2022-11-12T13:04:24.216Z,23.8
2022-11-12T13:05:26.637Z,23.8
2022-11-12T13:06:28.814Z,23.8
2022-11-12T13:07:31.402Z,23.8
2022-11-12T13:08:33.719Z,23.8
2022-11-12T13:09:35.928Z,23.8
2022-11-12T13:10:38.614Z,23.8
2022-11-12T13:11:41.127Z,23.8
2022-11-12T13:12:43.365Z,23.8
2022-11-12T13:13:45.270Z,23.8
2022-11-12T13:14:47.217Z,23.8
2022-11-12T13:15:49.516Z,23.8
2022-11-12T13:16:52.060Z,23.8
2022-11-12T13:17:54.018Z,23.8
2022-11-12T13:18:56.234Z,23.9
2022-11-12T13:19:58.184Z,23.8
2022-11-12T13:21:00.892Z,23.9
2022-11-12T13:22:03.745Z,23.8
2022-11-12T13:23:06.226Z,23.8
2022-11-12T13:24:09.456Z,23.8
2022-11-12T13:25:11.441Z,23.8
2022-11-12T13:26:14.044Z,23.8
2022-11-12T13:27:16.244Z,23.8
2022-11-12T13:28:18.720Z,23.8
2022-11-12T13:29:20.902Z,23.8
2022-11-12T13:30:23.123Z,23.8
2022-11-12T13:31:25.332Z,23.8
2022-11-12T13:32:27.784Z,23.8
2022-11-12T13:33:29.994Z,23.8
2022-11-12T13:34:31.635Z,23.8
2022-11-12T13:35:33.839Z,23.8
2022-11-12T13:36:36.120Z,23.8
2022-11-12T13:37:38.825Z,23.8
2022-11-12T13:38:40.759Z,23.8
2022-11-12T13:39:42.683Z,23.8
2022-11-12T13:40:45.179Z,23.8
2022-11-12T13:41:47.761Z,23.8
2022-11-12T13:42:50.238Z,23.8
2022-11-12T13:43:52.167Z,23.8
2022-11-12T13:45:59.682Z,23.8
2022-11-12T13:47:01.900Z,23.8
2022-11-12T13:48:04.378Z,23.8
2022-11-12T13:49:06.852Z,23.8
2022-11-12T13:50:08.781Z,23.8
2022-11-12T13:51:10.983Z,23.8
2022-11-12T13:52:13.699Z,23.8
2022-11-12T13:53:16.411Z,23.8
2022-11-12T13:54:18.883Z,23.8
2022-11-12T13:55:21.354Z,23.8
2022-11-12T13:56:23.840Z,23.8
2022-11-12T13:57:26.437Z,23.8
2022-11-12T13:58:29.646Z,23.8
2022-11-12T13:59:32.094Z,23.8
2022-11-12T14:00:33.944Z,23.8
2022-11-12T14:01:36.370Z,23.8
2022-11-12T14:03:43.315Z,23.8
2022-11-12T14:04:45.506Z,23.8
2022-11-12T14:05:47.458Z,23.8
2022-11-12T14:06:49.778Z,23.8
2022-11-12T14:07:52.773Z,23.8
2022-11-12T14:08:55.508Z,23.8
2022-11-12T14:09:57.727Z,23.8
2022-11-12T14:11:00.216Z,23.8
2022-11-12T14:12:02.413Z,23.8
2022-11-12T14:13:05.012Z,23.8
2022-11-12T14:14:07.567Z,23.8
2022-11-12T14:15:09.754Z,23.8
2022-11-12T14:16:11.954Z,23.8
2022-11-12T14:18:19.421Z,23.8
2022-11-12T14:19:21.598Z,23.8
2022-11-12T14:20:24.085Z,23.8
2022-11-12T14:21:26.561Z,23.8
2022-11-12T14:22:29.034Z,23.8
2022-11-12T14:23:31.196Z,23.8
2022-11-12T14:24:33.913Z,23.8
2022-11-12T14:25:36.379Z,23.8